sensor_id;sensor_type;location;lat;lon;timestamp;P1;durP1;ratioP1;P2;durP2;ratioP2
43700;SDS011;58809;47.984;7.964;2023-02-08T00:00:00;20.05;;;14.07;;
43700;SDS011;58809;47.984;7.964;2023-02-08T00:03:02;20.27;;;12.73;;
43700;SDS011;58809;47.984;7.964;2023-02-08T00:06:05;21.27;;;13.75;;
43700;SDS011;58809;47.984;7.964;2023-02-08T00:09:07;17.60;;;12.60;;
43700;SDS011;58809;47.984;7.964;2023-02-08T00:12:09;19.98;;;14.35;;
43700;SDS011;58809;47.984;7.964;2023-02-08T00:15:10;18.42;;;12.52;;
43700;SDS011;58809;47.984;7.964;2023-02-08T00:18:12;19.58;;;12.80;;
43700;SDS011;58809;47.984;7.964;2023-02-08T00:21:15;19.20;;;13.20;;
43700;SDS011;58809;47.984;7.964;2023-02-08T00:24:17;23.52;;;14.18;;
43700;SDS011;58809;47.984;7.964;2023-02-08T00:27:19;18.15;;;13.40;;
43700;SDS011;58809;47.984;7.964;2023-02-08T00:30:21;20.63;;;14.38;;
43700;SDS011;58809;47.984;7.964;2023-02-08T00:33:22;21.15;;;13.88;;
43700;SDS011;58809;47.984;7.964;2023-02-08T00:36:24;19.40;;;12.98;;
43700;SDS011;58809;47.984;7.964;2023-02-08T00:39:25;19.00;;;12.80;;
43700;SDS011;58809;47.984;7.964;2023-02-08T00:42:27;16.23;;;11.40;;
43700;SDS011;58809;47.984;7.964;2023-02-08T00:45:30;15.68;;;10.82;;
43700;SDS011;58809;47.984;7.964;2023-02-08T00:48:33;16.88;;;11.43;;
43700;SDS011;58809;47.984;7.964;2023-02-08T00:51:34;19.23;;;12.43;;
43700;SDS011;58809;47.984;7.964;2023-02-08T00:54:36;18.73;;;12.32;;
43700;SDS011;58809;47.984;7.964;2023-02-08T00:57:38;18.13;;;12.60;;
43700;SDS011;58809;47.984;7.964;2023-02-08T01:00:40;16.30;;;12.13;;
43700;SDS011;58809;47.984;7.964;2023-02-08T01:03:42;19.38;;;13.05;;
43700;SDS011;58809;47.984;7.964;2023-02-08T01:06:44;16.65;;;11.45;;
43700;SDS011;58809;47.984;7.964;2023-02-08T01:09:46;16.08;;;11.00;;
43700;SDS011;58809;47.984;7.964;2023-02-08T01:12:47;18.95;;;11.00;;
43700;SDS011;58809;47.984;7.964;2023-02-08T01:15:49;14.77;;;10.77;;
43700;SDS011;58809;47.984;7.964;2023-02-08T01:18:51;16.15;;;10.25;;
43700;SDS011;58809;47.984;7.964;2023-02-08T01:21:54;18.52;;;11.48;;
43700;SDS011;58809;47.984;7.964;2023-02-08T01:24:57;15.13;;;9.88;;
43700;SDS011;58809;47.984;7.964;2023-02-08T01:27:58;15.77;;;10.52;;
43700;SDS011;58809;47.984;7.964;2023-02-08T01:31:03;12.75;;;9.05;;
43700;SDS011;58809;47.984;7.964;2023-02-08T01:34:08;16.38;;;9.23;;
43700;SDS011;58809;47.984;7.964;2023-02-08T01:37:11;13.48;;;8.80;;
43700;SDS011;58809;47.984;7.964;2023-02-08T01:40:13;13.25;;;9.07;;
43700;SDS011;58809;47.984;7.964;2023-02-08T01:43:18;14.10;;;9.18;;
43700;SDS011;58809;47.984;7.964;2023-02-08T01:46:22;14.15;;;8.15;;
43700;SDS011;58809;47.984;7.964;2023-02-08T01:49:25;13.70;;;8.60;;
43700;SDS011;58809;47.984;7.964;2023-02-08T01:52:30;12.80;;;7.68;;
43700;SDS011;58809;47.984;7.964;2023-02-08T01:55:33;13.68;;;8.50;;
43700;SDS011;58809;47.984;7.964;2023-02-08T01:58:39;12.60;;;8.20;;
43700;SDS011;58809;47.984;7.964;2023-02-08T02:01:45;15.35;;;8.80;;
43700;SDS011;58809;47.984;7.964;2023-02-08T02:04:49;12.48;;;8.10;;
43700;SDS011;58809;47.984;7.964;2023-02-08T02:07:52;11.73;;;7.80;;
43700;SDS011;58809;47.984;7.964;2023-02-08T02:10:55;11.93;;;8.63;;
43700;SDS011;58809;47.984;7.964;2023-02-08T02:13:57;12.35;;;7.75;;
43700;SDS011;58809;47.984;7.964;2023-02-08T02:16:59;12.70;;;8.27;;
43700;SDS011;58809;47.984;7.964;2023-02-08T02:30:34;14.27;;;8.65;;
43700;SDS011;58809;47.984;7.964;2023-02-08T02:33:52;10.15;;;7.18;;
43700;SDS011;58809;47.984;7.964;2023-02-08T02:37:04;11.45;;;7.90;;
43700;SDS011;58809;47.984;7.964;2023-02-08T02:43:16;10.57;;;7.63;;
43700;SDS011;58809;47.984;7.964;2023-02-08T02:46:44;15.18;;;7.57;;
43700;SDS011;58809;47.984;7.964;2023-02-08T02:49:53;11.48;;;7.00;;
43700;SDS011;58809;47.984;7.964;2023-02-08T02:53:05;12.73;;;7.47;;
43700;SDS011;58809;47.984;7.964;2023-02-08T02:56:12;14.00;;;6.80;;
43700;SDS011;58809;47.984;7.964;2023-02-08T02:59:18;8.68;;;5.90;;
43700;SDS011;58809;47.984;7.964;2023-02-08T03:02:20;11.07;;;6.78;;
43700;SDS011;58809;47.984;7.964;2023-02-08T03:05:22;11.05;;;7.00;;
43700;SDS011;58809;47.984;7.964;2023-02-08T03:08:27;10.15;;;6.05;;
43700;SDS011;58809;47.984;7.964;2023-02-08T03:11:56;12.65;;;6.78;;
43700;SDS011;58809;47.984;7.964;2023-02-08T03:18:41;10.18;;;6.85;;
43700;SDS011;58809;47.984;7.964;2023-02-08T03:25:27;9.02;;;5.93;;
43700;SDS011;58809;47.984;7.964;2023-02-08T03:34:57;10.63;;;6.22;;
43700;SDS011;58809;47.984;7.964;2023-02-08T03:38:06;11.40;;;5.68;;
43700;SDS011;58809;47.984;7.964;2023-02-08T03:41:14;10.77;;;6.30;;
43700;SDS011;58809;47.984;7.964;2023-02-08T03:44:32;9.13;;;5.65;;
43700;SDS011;58809;47.984;7.964;2023-02-08T03:47:38;8.85;;;5.47;;
43700;SDS011;58809;47.984;7.964;2023-02-08T03:50:43;10.90;;;5.97;;
43700;SDS011;58809;47.984;7.964;2023-02-08T03:53:48;8.75;;;6.13;;
43700;SDS011;58809;47.984;7.964;2023-02-08T03:56:58;12.90;;;5.50;;
43700;SDS011;58809;47.984;7.964;2023-02-08T04:00:09;10.38;;;6.22;;
43700;SDS011;58809;47.984;7.964;2023-02-08T04:03:18;9.68;;;5.60;;
43700;SDS011;58809;47.984;7.964;2023-02-08T04:06:23;7.80;;;5.43;;
43700;SDS011;58809;47.984;7.964;2023-02-08T04:09:25;8.45;;;4.90;;
43700;SDS011;58809;47.984;7.964;2023-02-08T04:12:26;8.15;;;5.32;;
43700;SDS011;58809;47.984;7.964;2023-02-08T04:15:28;10.95;;;5.10;;
43700;SDS011;58809;47.984;7.964;2023-02-08T04:18:29;7.82;;;5.32;;
43700;SDS011;58809;47.984;7.964;2023-02-08T04:21:31;6.00;;;4.10;;
43700;SDS011;58809;47.984;7.964;2023-02-08T04:24:33;5.97;;;4.13;;
43700;SDS011;58809;47.984;7.964;2023-02-08T04:27:34;7.63;;;4.30;;
43700;SDS011;58809;47.984;7.964;2023-02-08T04:30:36;8.63;;;4.82;;
43700;SDS011;58809;47.984;7.964;2023-02-08T04:33:37;7.28;;;4.13;;
43700;SDS011;58809;47.984;7.964;2023-02-08T04:36:39;9.90;;;4.55;;
43700;SDS011;58809;47.984;7.964;2023-02-08T04:39:41;6.30;;;4.60;;
43700;SDS011;58809;47.984;7.964;2023-02-08T04:42:42;10.85;;;4.57;;
43700;SDS011;58809;47.984;7.964;2023-02-08T04:45:44;5.95;;;4.28;;
43700;SDS011;58809;47.984;7.964;2023-02-08T04:48:45;6.15;;;4.85;;
43700;SDS011;58809;47.984;7.964;2023-02-08T04:51:47;8.82;;;4.93;;
43700;SDS011;58809;47.984;7.964;2023-02-08T04:54:48;7.13;;;4.50;;
43700;SDS011;58809;47.984;7.964;2023-02-08T04:57:50;10.23;;;4.65;;
43700;SDS011;58809;47.984;7.964;2023-02-08T05:00:51;7.20;;;4.30;;
43700;SDS011;58809;47.984;7.964;2023-02-08T05:03:53;7.57;;;4.78;;
43700;SDS011;58809;47.984;7.964;2023-02-08T05:06:55;8.68;;;5.22;;
43700;SDS011;58809;47.984;7.964;2023-02-08T05:09:56;8.25;;;4.68;;
43700;SDS011;58809;47.984;7.964;2023-02-08T05:12:58;6.55;;;4.40;;
43700;SDS011;58809;47.984;7.964;2023-02-08T05:15:59;5.88;;;4.22;;
43700;SDS011;58809;47.984;7.964;2023-02-08T05:19:01;8.50;;;4.40;;
43700;SDS011;58809;47.984;7.964;2023-02-08T05:22:02;6.82;;;4.30;;
43700;SDS011;58809;47.984;7.964;2023-02-08T05:25:04;8.45;;;5.10;;
43700;SDS011;58809;47.984;7.964;2023-02-08T05:28:06;7.53;;;4.50;;
43700;SDS011;58809;47.984;7.964;2023-02-08T05:31:09;8.00;;;5.18;;
43700;SDS011;58809;47.984;7.964;2023-02-08T05:34:12;12.95;;;5.53;;
43700;SDS011;58809;47.984;7.964;2023-02-08T05:37:13;7.25;;;5.13;;
43700;SDS011;58809;47.984;7.964;2023-02-08T05:40:15;11.73;;;5.53;;
43700;SDS011;58809;47.984;7.964;2023-02-08T05:43:16;7.22;;;5.10;;
43700;SDS011;58809;47.984;7.964;2023-02-08T05:46:18;8.82;;;5.03;;
43700;SDS011;58809;47.984;7.964;2023-02-08T05:49:19;7.43;;;5.03;;
43700;SDS011;58809;47.984;7.964;2023-02-08T05:52:21;10.88;;;5.60;;
43700;SDS011;58809;47.984;7.964;2023-02-08T05:55:22;8.25;;;5.07;;
43700;SDS011;58809;47.984;7.964;2023-02-08T05:58:24;9.93;;;6.07;;
43700;SDS011;58809;47.984;7.964;2023-02-08T06:01:25;9.23;;;5.10;;
43700;SDS011;58809;47.984;7.964;2023-02-08T06:04:27;12.30;;;5.40;;
43700;SDS011;58809;47.984;7.964;2023-02-08T06:07:29;8.25;;;5.00;;
43700;SDS011;58809;47.984;7.964;2023-02-08T06:10:30;8.63;;;5.32;;
43700;SDS011;58809;47.984;7.964;2023-02-08T06:13:32;6.90;;;4.60;;
43700;SDS011;58809;47.984;7.964;2023-02-08T06:16:33;8.40;;;4.88;;
43700;SDS011;58809;47.984;7.964;2023-02-08T06:19:35;8.85;;;5.35;;
43700;SDS011;58809;47.984;7.964;2023-02-08T06:22:37;6.43;;;4.75;;
43700;SDS011;58809;47.984;7.964;2023-02-08T06:25:38;8.27;;;5.00;;
43700;SDS011;58809;47.984;7.964;2023-02-08T06:28:40;8.77;;;4.50;;
43700;SDS011;58809;47.984;7.964;2023-02-08T06:31:41;6.75;;;4.50;;
43700;SDS011;58809;47.984;7.964;2023-02-08T06:34:43;10.52;;;5.22;;
43700;SDS011;58809;47.984;7.964;2023-02-08T06:37:44;8.13;;;4.60;;
43700;SDS011;58809;47.984;7.964;2023-02-08T06:40:46;6.65;;;4.68;;
43700;SDS011;58809;47.984;7.964;2023-02-08T06:43:48;7.82;;;4.55;;
43700;SDS011;58809;47.984;7.964;2023-02-08T06:46:49;8.93;;;5.05;;
43700;SDS011;58809;47.984;7.964;2023-02-08T06:49:51;5.50;;;3.95;;
43700;SDS011;58809;47.984;7.964;2023-02-08T06:52:53;9.27;;;5.30;;
43700;SDS011;58809;47.984;7.964;2023-02-08T06:55:55;10.30;;;4.80;;
43700;SDS011;58809;47.984;7.964;2023-02-08T06:58:56;6.65;;;4.20;;
43700;SDS011;58809;47.984;7.964;2023-02-08T07:01:58;7.25;;;4.25;;
43700;SDS011;58809;47.984;7.964;2023-02-08T07:05:01;7.63;;;4.20;;
43700;SDS011;58809;47.984;7.964;2023-02-08T07:08:03;7.97;;;5.30;;
43700;SDS011;58809;47.984;7.964;2023-02-08T07:11:08;8.90;;;5.13;;
43700;SDS011;58809;47.984;7.964;2023-02-08T07:14:11;5.68;;;4.60;;
43700;SDS011;58809;47.984;7.964;2023-02-08T07:17:14;7.60;;;4.40;;
43700;SDS011;58809;47.984;7.964;2023-02-08T07:20:16;6.10;;;4.55;;
43700;SDS011;58809;47.984;7.964;2023-02-08T07:23:17;9.27;;;4.32;;
43700;SDS011;58809;47.984;7.964;2023-02-08T07:26:19;7.10;;;4.03;;
43700;SDS011;58809;47.984;7.964;2023-02-08T07:29:20;8.23;;;3.85;;
43700;SDS011;58809;47.984;7.964;2023-02-08T07:32:22;8.93;;;4.68;;
43700;SDS011;58809;47.984;7.964;2023-02-08T07:35:23;9.25;;;4.35;;
43700;SDS011;58809;47.984;7.964;2023-02-08T07:38:25;7.50;;;4.93;;
43700;SDS011;58809;47.984;7.964;2023-02-08T07:41:27;13.10;;;7.63;;
43700;SDS011;58809;47.984;7.964;2023-02-08T07:44:28;10.63;;;5.82;;
43700;SDS011;58809;47.984;7.964;2023-02-08T07:47:30;8.23;;;5.00;;
43700;SDS011;58809;47.984;7.964;2023-02-08T07:50:31;13.32;;;10.15;;
43700;SDS011;58809;47.984;7.964;2023-02-08T07:53:33;19.35;;;11.48;;
43700;SDS011;58809;47.984;7.964;2023-02-08T07:56:35;16.27;;;10.90;;
43700;SDS011;58809;47.984;7.964;2023-02-08T07:59:36;19.27;;;12.32;;
43700;SDS011;58809;47.984;7.964;2023-02-08T08:02:38;16.98;;;12.15;;
43700;SDS011;58809;47.984;7.964;2023-02-08T08:05:40;20.02;;;13.77;;
43700;SDS011;58809;47.984;7.964;2023-02-08T08:08:41;20.20;;;12.70;;
43700;SDS011;58809;47.984;7.964;2023-02-08T08:11:47;19.05;;;13.25;;
43700;SDS011;58809;47.984;7.964;2023-02-08T08:14:49;21.08;;;14.20;;
43700;SDS011;58809;47.984;7.964;2023-02-08T08:17:51;19.10;;;12.77;;
43700;SDS011;58809;47.984;7.964;2023-02-08T08:20:53;18.67;;;13.40;;
43700;SDS011;58809;47.984;7.964;2023-02-08T08:23:54;19.17;;;14.25;;
43700;SDS011;58809;47.984;7.964;2023-02-08T08:26:56;22.33;;;14.30;;
43700;SDS011;58809;47.984;7.964;2023-02-08T08:29:58;21.30;;;13.88;;
43700;SDS011;58809;47.984;7.964;2023-02-08T08:33:00;21.70;;;12.45;;
43700;SDS011;58809;47.984;7.964;2023-02-08T08:36:01;18.77;;;13.10;;
43700;SDS011;58809;47.984;7.964;2023-02-08T08:39:03;18.27;;;12.32;;
43700;SDS011;58809;47.984;7.964;2023-02-08T08:42:04;19.90;;;12.85;;
43700;SDS011;58809;47.984;7.964;2023-02-08T08:45:06;18.48;;;11.93;;
43700;SDS011;58809;47.984;7.964;2023-02-08T08:48:08;21.40;;;13.55;;
43700;SDS011;58809;47.984;7.964;2023-02-08T08:51:11;18.55;;;13.35;;
43700;SDS011;58809;47.984;7.964;2023-02-08T08:54:12;21.13;;;13.15;;
43700;SDS011;58809;47.984;7.964;2023-02-08T08:57:14;17.83;;;12.10;;
43700;SDS011;58809;47.984;7.964;2023-02-08T09:00:16;19.00;;;12.32;;
43700;SDS011;58809;47.984;7.964;2023-02-08T09:08:06;20.33;;;13.48;;
43700;SDS011;58809;47.984;7.964;2023-02-08T09:11:08;20.02;;;14.70;;
43700;SDS011;58809;47.984;7.964;2023-02-08T09:14:11;23.05;;;15.10;;
43700;SDS011;58809;47.984;7.964;2023-02-08T09:17:13;21.63;;;15.70;;
43700;SDS011;58809;47.984;7.964;2023-02-08T09:20:15;20.92;;;14.10;;
43700;SDS011;58809;47.984;7.964;2023-02-08T09:23:16;20.70;;;14.85;;
43700;SDS011;58809;47.984;7.964;2023-02-08T09:26:18;20.77;;;14.55;;
43700;SDS011;58809;47.984;7.964;2023-02-08T09:29:20;22.52;;;15.68;;
43700;SDS011;58809;47.984;7.964;2023-02-08T09:32:21;25.38;;;16.77;;
43700;SDS011;58809;47.984;7.964;2023-02-08T09:35:23;23.85;;;16.80;;
43700;SDS011;58809;47.984;7.964;2023-02-08T09:38:25;27.58;;;16.60;;
43700;SDS011;58809;47.984;7.964;2023-02-08T09:44:40;23.65;;;14.60;;
43700;SDS011;58809;47.984;7.964;2023-02-08T09:54:40;19.58;;;13.30;;
43700;SDS011;58809;47.984;7.964;2023-02-08T09:57:47;20.00;;;13.68;;
43700;SDS011;58809;47.984;7.964;2023-02-08T10:00:53;20.52;;;12.85;;
43700;SDS011;58809;47.984;7.964;2023-02-08T10:07:20;21.10;;;14.10;;
43700;SDS011;58809;47.984;7.964;2023-02-08T10:10:32;23.80;;;15.60;;
43700;SDS011;58809;47.984;7.964;2023-02-08T10:27:00;25.25;;;14.50;;
43700;SDS011;58809;47.984;7.964;2023-02-08T10:36:33;17.38;;;13.90;;
43700;SDS011;58809;47.984;7.964;2023-02-08T10:39:42;19.70;;;12.75;;
43700;SDS011;58809;47.984;7.964;2023-02-08T10:42:48;21.58;;;14.25;;
43700;SDS011;58809;47.984;7.964;2023-02-08T10:52:10;23.15;;;14.60;;
43700;SDS011;58809;47.984;7.964;2023-02-08T10:55:12;17.23;;;12.65;;
43700;SDS011;58809;47.984;7.964;2023-02-08T10:58:16;17.60;;;13.02;;
43700;SDS011;58809;47.984;7.964;2023-02-08T11:01:20;17.17;;;13.15;;
43700;SDS011;58809;47.984;7.964;2023-02-08T11:04:22;16.55;;;11.98;;
43700;SDS011;58809;47.984;7.964;2023-02-08T11:07:24;20.65;;;12.73;;
43700;SDS011;58809;47.984;7.964;2023-02-08T11:10:26;18.80;;;13.30;;
43700;SDS011;58809;47.984;7.964;2023-02-08T11:13:46;20.33;;;12.70;;
43700;SDS011;58809;47.984;7.964;2023-02-08T11:16:54;18.13;;;12.52;;
43700;SDS011;58809;47.984;7.964;2023-02-08T11:19:57;17.58;;;11.85;;
43700;SDS011;58809;47.984;7.964;2023-02-08T11:22:59;18.55;;;12.32;;
43700;SDS011;58809;47.984;7.964;2023-02-08T11:26:21;18.27;;;12.52;;
43700;SDS011;58809;47.984;7.964;2023-02-08T11:29:33;16.73;;;11.70;;
43700;SDS011;58809;47.984;7.964;2023-02-08T11:32:35;19.42;;;12.55;;
43700;SDS011;58809;47.984;7.964;2023-02-08T11:35:37;16.08;;;11.38;;
43700;SDS011;58809;47.984;7.964;2023-02-08T11:38:40;16.80;;;11.38;;
43700;SDS011;58809;47.984;7.964;2023-02-08T11:41:43;15.70;;;11.93;;
43700;SDS011;58809;47.984;7.964;2023-02-08T11:44:47;20.30;;;12.60;;
43700;SDS011;58809;47.984;7.964;2023-02-08T11:47:50;16.85;;;11.32;;
43700;SDS011;58809;47.984;7.964;2023-02-08T11:50:57;16.45;;;12.48;;
43700;SDS011;58809;47.984;7.964;2023-02-08T11:54:01;17.20;;;12.18;;
43700;SDS011;58809;47.984;7.964;2023-02-08T11:57:15;19.20;;;11.73;;
43700;SDS011;58809;47.984;7.964;2023-02-08T12:00:20;17.60;;;11.60;;
43700;SDS011;58809;47.984;7.964;2023-02-08T12:03:29;14.60;;;10.55;;
43700;SDS011;58809;47.984;7.964;2023-02-08T12:13:23;17.65;;;11.30;;
43700;SDS011;58809;47.984;7.964;2023-02-08T12:19:58;17.08;;;11.63;;
43700;SDS011;58809;47.984;7.964;2023-02-08T12:23:44;16.70;;;11.23;;
43700;SDS011;58809;47.984;7.964;2023-02-08T12:40:16;16.50;;;11.73;;
43700;SDS011;58809;47.984;7.964;2023-02-08T12:53:51;18.90;;;11.75;;
43700;SDS011;58809;47.984;7.964;2023-02-08T12:56:56;15.85;;;11.88;;
43700;SDS011;58809;47.984;7.964;2023-02-08T13:00:04;18.67;;;12.80;;
43700;SDS011;58809;47.984;7.964;2023-02-08T13:06:40;20.85;;;13.68;;
43700;SDS011;58809;47.984;7.964;2023-02-08T13:13:13;19.55;;;13.63;;
43700;SDS011;58809;47.984;7.964;2023-02-08T13:16:21;16.90;;;12.43;;
43700;SDS011;58809;47.984;7.964;2023-02-08T13:22:59;20.35;;;13.27;;
43700;SDS011;58809;47.984;7.964;2023-02-08T13:26:07;20.27;;;13.70;;
43700;SDS011;58809;47.984;7.964;2023-02-08T13:29:19;17.95;;;13.38;;
43700;SDS011;58809;47.984;7.964;2023-02-08T13:32:57;15.88;;;13.00;;
43700;SDS011;58809;47.984;7.964;2023-02-08T13:35:52;19.23;;;13.07;;
43700;SDS011;58809;47.984;7.964;2023-02-08T13:38:55;20.00;;;13.68;;
43700;SDS011;58809;47.984;7.964;2023-02-08T13:41:59;16.90;;;13.15;;
43700;SDS011;58809;47.984;7.964;2023-02-08T13:45:03;19.00;;;13.43;;
43700;SDS011;58809;47.984;7.964;2023-02-08T13:48:07;19.38;;;12.40;;
43700;SDS011;58809;47.984;7.964;2023-02-08T13:54:29;20.00;;;13.23;;
43700;SDS011;58809;47.984;7.964;2023-02-08T14:10:17;16.83;;;12.98;;
43700;SDS011;58809;47.984;7.964;2023-02-08T14:13:29;17.50;;;12.75;;
43700;SDS011;58809;47.984;7.964;2023-02-08T14:16:36;19.65;;;12.57;;
43700;SDS011;58809;47.984;7.964;2023-02-08T14:19:41;18.77;;;13.80;;
43700;SDS011;58809;47.984;7.964;2023-02-08T14:22:51;20.20;;;13.48;;
43700;SDS011;58809;47.984;7.964;2023-02-08T14:25:55;20.10;;;13.35;;
43700;SDS011;58809;47.984;7.964;2023-02-08T14:29:01;16.52;;;13.27;;
43700;SDS011;58809;47.984;7.964;2023-02-08T14:32:05;16.70;;;13.05;;
43700;SDS011;58809;47.984;7.964;2023-02-08T14:44:45;17.95;;;13.40;;
43700;SDS011;58809;47.984;7.964;2023-02-08T14:47:56;21.65;;;13.05;;
43700;SDS011;58809;47.984;7.964;2023-02-08T14:54:14;20.20;;;14.07;;
43700;SDS011;58809;47.984;7.964;2023-02-08T14:57:23;19.02;;;12.93;;
43700;SDS011;58809;47.984;7.964;2023-02-08T15:00:31;19.77;;;13.25;;
43700;SDS011;58809;47.984;7.964;2023-02-08T15:03:35;24.13;;;14.23;;
43700;SDS011;58809;47.984;7.964;2023-02-08T15:06:46;17.88;;;12.85;;
43700;SDS011;58809;47.984;7.964;2023-02-08T15:10:13;19.35;;;14.48;;
43700;SDS011;58809;47.984;7.964;2023-02-08T15:13:17;18.13;;;12.90;;
43700;SDS011;58809;47.984;7.964;2023-02-08T15:16:27;18.75;;;14.00;;
43700;SDS011;58809;47.984;7.964;2023-02-08T15:19:34;21.23;;;15.35;;
43700;SDS011;58809;47.984;7.964;2023-02-08T15:22:43;18.67;;;12.98;;
43700;SDS011;58809;47.984;7.964;2023-02-08T15:25:59;16.10;;;13.35;;
43700;SDS011;58809;47.984;7.964;2023-02-08T15:29:04;22.85;;;14.38;;
43700;SDS011;58809;47.984;7.964;2023-02-08T15:32:19;20.38;;;13.75;;
43700;SDS011;58809;47.984;7.964;2023-02-08T15:35:23;18.27;;;13.25;;
43700;SDS011;58809;47.984;7.964;2023-02-08T15:38:26;18.20;;;14.07;;
43700;SDS011;58809;47.984;7.964;2023-02-08T15:41:31;22.20;;;13.55;;
43700;SDS011;58809;47.984;7.964;2023-02-08T15:44:38;17.88;;;13.23;;
43700;SDS011;58809;47.984;7.964;2023-02-08T15:47:43;19.85;;;13.38;;
43700;SDS011;58809;47.984;7.964;2023-02-08T15:50:45;18.25;;;13.38;;
43700;SDS011;58809;47.984;7.964;2023-02-08T15:53:48;22.30;;;13.10;;
43700;SDS011;58809;47.984;7.964;2023-02-08T15:56:56;17.85;;;13.20;;
43700;SDS011;58809;47.984;7.964;2023-02-08T16:00:06;18.95;;;14.30;;
43700;SDS011;58809;47.984;7.964;2023-02-08T16:03:23;22.17;;;15.38;;
43700;SDS011;58809;47.984;7.964;2023-02-08T16:06:31;23.88;;;14.85;;
43700;SDS011;58809;47.984;7.964;2023-02-08T16:09:37;22.00;;;13.38;;
43700;SDS011;58809;47.984;7.964;2023-02-08T16:12:38;21.30;;;14.18;;
43700;SDS011;58809;47.984;7.964;2023-02-08T16:15:42;20.40;;;15.00;;
43700;SDS011;58809;47.984;7.964;2023-02-08T16:18:46;22.10;;;14.88;;
43700;SDS011;58809;47.984;7.964;2023-02-08T16:22:24;20.35;;;14.57;;
43700;SDS011;58809;47.984;7.964;2023-02-08T16:28:30;24.35;;;16.27;;
43700;SDS011;58809;47.984;7.964;2023-02-08T16:31:34;22.85;;;16.92;;
43700;SDS011;58809;47.984;7.964;2023-02-08T16:34:36;39.90;;;25.10;;
43700;SDS011;58809;47.984;7.964;2023-02-08T16:37:38;26.10;;;19.80;;
43700;SDS011;58809;47.984;7.964;2023-02-08T16:40:42;25.35;;;17.42;;
43700;SDS011;58809;47.984;7.964;2023-02-08T16:43:49;23.73;;;18.55;;
43700;SDS011;58809;47.984;7.964;2023-02-08T16:47:24;24.00;;;18.30;;
43700;SDS011;58809;47.984;7.964;2023-02-08T16:50:36;25.58;;;16.00;;
43700;SDS011;58809;47.984;7.964;2023-02-08T16:53:38;22.38;;;15.25;;
43700;SDS011;58809;47.984;7.964;2023-02-08T16:56:43;22.23;;;15.32;;
43700;SDS011;58809;47.984;7.964;2023-02-08T16:59:46;24.50;;;17.20;;
43700;SDS011;58809;47.984;7.964;2023-02-08T17:02:48;26.80;;;17.45;;
43700;SDS011;58809;47.984;7.964;2023-02-08T17:05:50;27.35;;;18.67;;
43700;SDS011;58809;47.984;7.964;2023-02-08T17:08:52;38.80;;;25.35;;
43700;SDS011;58809;47.984;7.964;2023-02-08T17:11:54;69.43;;;41.38;;
43700;SDS011;58809;47.984;7.964;2023-02-08T17:14:55;63.28;;;40.97;;
43700;SDS011;58809;47.984;7.964;2023-02-08T17:17:57;40.22;;;29.00;;
43700;SDS011;58809;47.984;7.964;2023-02-08T17:20:58;31.42;;;21.88;;
43700;SDS011;58809;47.984;7.964;2023-02-08T17:24:01;24.27;;;16.75;;
43700;SDS011;58809;47.984;7.964;2023-02-08T17:27:03;31.55;;;20.55;;
43700;SDS011;58809;47.984;7.964;2023-02-08T17:30:05;26.40;;;19.52;;
43700;SDS011;58809;47.984;7.964;2023-02-08T17:33:07;25.98;;;18.35;;
43700;SDS011;58809;47.984;7.964;2023-02-08T17:36:12;30.27;;;20.52;;
43700;SDS011;58809;47.984;7.964;2023-02-08T17:39:14;32.33;;;22.05;;
43700;SDS011;58809;47.984;7.964;2023-02-08T17:42:18;33.92;;;21.15;;
43700;SDS011;58809;47.984;7.964;2023-02-08T17:45:19;32.15;;;17.95;;
43700;SDS011;58809;47.984;7.964;2023-02-08T17:48:21;39.78;;;24.75;;
43700;SDS011;58809;47.984;7.964;2023-02-08T17:51:23;50.70;;;31.10;;
43700;SDS011;58809;47.984;7.964;2023-02-08T17:54:24;30.95;;;21.05;;
43700;SDS011;58809;47.984;7.964;2023-02-08T17:57:26;35.03;;;21.63;;
43700;SDS011;58809;47.984;7.964;2023-02-08T18:00:30;34.63;;;23.40;;
43700;SDS011;58809;47.984;7.964;2023-02-08T18:03:35;31.75;;;22.77;;
43700;SDS011;58809;47.984;7.964;2023-02-08T18:06:36;24.80;;;18.50;;
43700;SDS011;58809;47.984;7.964;2023-02-08T18:09:38;28.88;;;19.85;;
43700;SDS011;58809;47.984;7.964;2023-02-08T18:12:39;30.08;;;19.98;;
43700;SDS011;58809;47.984;7.964;2023-02-08T18:15:42;31.98;;;20.85;;
43700;SDS011;58809;47.984;7.964;2023-02-08T18:18:44;33.35;;;21.05;;
43700;SDS011;58809;47.984;7.964;2023-02-08T18:21:46;35.80;;;23.92;;
43700;SDS011;58809;47.984;7.964;2023-02-08T18:24:47;36.08;;;23.63;;
43700;SDS011;58809;47.984;7.964;2023-02-08T18:27:49;31.20;;;22.80;;
43700;SDS011;58809;47.984;7.964;2023-02-08T18:30:50;29.67;;;22.00;;
43700;SDS011;58809;47.984;7.964;2023-02-08T18:33:52;34.47;;;23.02;;
43700;SDS011;58809;47.984;7.964;2023-02-08T18:36:54;33.85;;;23.10;;
43700;SDS011;58809;47.984;7.964;2023-02-08T18:39:56;31.35;;;23.05;;
43700;SDS011;58809;47.984;7.964;2023-02-08T18:42:57;32.90;;;22.38;;
43700;SDS011;58809;47.984;7.964;2023-02-08T18:46:06;32.53;;;21.23;;
43700;SDS011;58809;47.984;7.964;2023-02-08T18:49:13;33.55;;;21.98;;
43700;SDS011;58809;47.984;7.964;2023-02-08T18:52:16;26.65;;;19.98;;
43700;SDS011;58809;47.984;7.964;2023-02-08T18:55:17;26.15;;;18.65;;
43700;SDS011;58809;47.984;7.964;2023-02-08T18:58:19;30.13;;;21.48;;
43700;SDS011;58809;47.984;7.964;2023-02-08T19:01:22;35.10;;;21.95;;
43700;SDS011;58809;47.984;7.964;2023-02-08T19:04:24;29.65;;;21.67;;
43700;SDS011;58809;47.984;7.964;2023-02-08T19:07:26;27.45;;;19.20;;
43700;SDS011;58809;47.984;7.964;2023-02-08T19:10:28;29.08;;;19.83;;
43700;SDS011;58809;47.984;7.964;2023-02-08T19:13:29;25.65;;;18.83;;
43700;SDS011;58809;47.984;7.964;2023-02-08T19:16:32;39.20;;;24.23;;
43700;SDS011;58809;47.984;7.964;2023-02-08T19:19:36;28.35;;;19.27;;
43700;SDS011;58809;47.984;7.964;2023-02-08T19:22:37;29.23;;;19.30;;
43700;SDS011;58809;47.984;7.964;2023-02-08T19:25:39;24.42;;;16.70;;
43700;SDS011;58809;47.984;7.964;2023-02-08T19:28:40;27.25;;;16.73;;
43700;SDS011;58809;47.984;7.964;2023-02-08T19:31:42;23.65;;;16.42;;
43700;SDS011;58809;47.984;7.964;2023-02-08T19:34:44;27.52;;;17.10;;
43700;SDS011;58809;47.984;7.964;2023-02-08T19:37:46;25.25;;;16.35;;
43700;SDS011;58809;47.984;7.964;2023-02-08T19:40:53;25.63;;;16.92;;
43700;SDS011;58809;47.984;7.964;2023-02-08T19:43:55;32.92;;;21.52;;
43700;SDS011;58809;47.984;7.964;2023-02-08T19:46:57;34.05;;;21.33;;
43700;SDS011;58809;47.984;7.964;2023-02-08T19:49:58;28.40;;;19.05;;
43700;SDS011;58809;47.984;7.964;2023-02-08T19:53:00;29.15;;;16.48;;
43700;SDS011;58809;47.984;7.964;2023-02-08T19:56:05;24.23;;;15.10;;
43700;SDS011;58809;47.984;7.964;2023-02-08T19:59:16;23.58;;;15.55;;
43700;SDS011;58809;47.984;7.964;2023-02-08T20:02:22;23.23;;;15.18;;
43700;SDS011;58809;47.984;7.964;2023-02-08T20:05:27;22.08;;;14.60;;
43700;SDS011;58809;47.984;7.964;2023-02-08T20:08:29;27.00;;;16.85;;
43700;SDS011;58809;47.984;7.964;2023-02-08T20:11:32;23.63;;;15.93;;
43700;SDS011;58809;47.984;7.964;2023-02-08T20:14:38;36.80;;;23.63;;
43700;SDS011;58809;47.984;7.964;2023-02-08T20:17:40;31.95;;;19.45;;
43700;SDS011;58809;47.984;7.964;2023-02-08T20:20:42;25.65;;;18.40;;
43700;SDS011;58809;47.984;7.964;2023-02-08T20:23:44;27.08;;;17.65;;
43700;SDS011;58809;47.984;7.964;2023-02-08T20:26:46;27.35;;;19.08;;
43700;SDS011;58809;47.984;7.964;2023-02-08T20:29:48;26.38;;;17.45;;
43700;SDS011;58809;47.984;7.964;2023-02-08T20:32:50;26.92;;;17.17;;